createdAt,value
2022-12-02T00:01:15.189Z,102868.47
2022-12-02T00:03:44.367Z,102869.31
2022-12-02T00:06:17.402Z,102870.00
2022-12-02T00:08:45.640Z,102871.63
2022-12-02T00:11:27.732Z,102871.53
2022-12-02T00:13:59.901Z,102863.56
2022-12-02T00:16:28.660Z,102858.19
2022-12-02T00:18:57.397Z,102869.28
2022-12-02T00:21:26.917Z,102869.03
2022-12-02T00:23:55.128Z,102874.22
2022-12-02T00:26:23.346Z,102872.44
2022-12-02T00:28:51.589Z,102874.13
2022-12-02T00:31:19.954Z,102862.06
2022-12-02T00:33:48.135Z,102866.44
2022-12-02T00:36:16.395Z,102860.34
2022-12-02T00:38:45.914Z,102856.91
2022-12-02T00:41:14.066Z,102862.06
2022-12-02T00:43:59.967Z,102861.22
2022-12-02T00:46:35.020Z,102859.44
2022-12-02T00:49:07.049Z,102859.44
2022-12-02T00:51:36.017Z,102845.47
2022-12-02T00:54:06.417Z,102850.69
2022-12-02T00:56:35.472Z,102841.19
2022-12-02T00:59:04.526Z,102843.88
2022-12-02T01:01:35.590Z,102845.56
2022-12-02T01:04:04.653Z,102848.16
2022-12-02T01:06:32.888Z,102844.66
2022-12-02T01:09:01.024Z,102846.38
2022-12-02T01:11:30.621Z,102845.47
2022-12-02T01:13:58.792Z,102846.19
2022-12-02T01:16:27.007Z,102836.69
2022-12-02T01:18:55.270Z,102838.31
2022-12-02T01:21:23.592Z,102839.09
2022-12-02T01:23:52.252Z,102838.81
2022-12-02T01:26:20.475Z,102852.38
2022-12-02T01:28:50.185Z,102847.78
2022-12-02T01:31:18.463Z,102845.03
2022-12-02T01:33:46.661Z,102839.63
2022-12-02T01:36:14.835Z,102847.41
2022-12-02T01:38:43.023Z,102855.13
2022-12-02T01:41:13.020Z,102847.41
2022-12-02T01:43:41.269Z,102845.81
2022-12-02T01:46:11.095Z,102844.19
2022-12-02T01:48:39.655Z,102841.72
2022-12-02T01:51:08.522Z,102842.59
2022-12-02T01:53:37.565Z,102837.50
2022-12-02T01:56:06.288Z,102834.97
2022-12-02T01:58:34.534Z,102842.75
2022-12-02T02:01:02.832Z,102833.31
2022-12-02T02:03:32.428Z,102828.78
2022-12-02T02:06:00.707Z,102819.94
2022-12-02T02:08:28.891Z,102830.16
2022-12-02T02:10:57.099Z,102831.66
2022-12-02T02:13:25.382Z,102824.69
2022-12-02T02:15:53.613Z,102835.88
2022-12-02T02:18:21.749Z,102824.50
2022-12-02T02:20:51.527Z,102828.69
2022-12-02T02:23:23.457Z,102826.09
2022-12-02T02:25:54.945Z,102821.72
2022-12-02T02:28:24.606Z,102824.22
2022-12-02T02:30:53.987Z,102817.16
2022-12-02T02:33:23.766Z,102823.94
2022-12-02T02:35:52.572Z,102819.66
2022-12-02T02:38:25.190Z,102823.94
2022-12-02T02:40:54.984Z,102829.84
2022-12-02T02:43:26.620Z,102823.50
2022-12-02T02:45:55.825Z,102818.03
2022-12-02T02:48:24.739Z,102817.84
2022-12-02T02:50:53.555Z,102818.44
2022-12-02T02:53:26.641Z,102815.50
2022-12-02T02:55:54.973Z,102806.53
2022-12-02T02:58:27.016Z,102816.72
2022-12-02T03:00:59.419Z,102805.28
2022-12-02T03:03:30.976Z,102804.47
2022-12-02T03:06:00.993Z,102797.50
2022-12-02T03:08:32.390Z,102798.41
2022-12-02T03:11:03.870Z,102797.41
2022-12-02T03:13:35.181Z,102801.69
2022-12-02T03:16:10.912Z,102810.97
2022-12-02T03:18:42.718Z,102804.00
2022-12-02T03:21:11.121Z,102809.00
2022-12-02T03:23:41.038Z,102804.78
2022-12-02T03:26:09.995Z,102803.81
2022-12-02T03:28:38.419Z,102803.72
2022-12-02T03:31:07.127Z,102801.81
2022-12-02T03:33:35.863Z,102805.22
2022-12-02T03:36:04.380Z,102801.63
2022-12-02T03:38:34.538Z,102799.03
2022-12-02T03:41:06.330Z,102794.69
2022-12-02T03:43:34.602Z,102798.06
2022-12-02T03:46:03.871Z,102796.28
2022-12-02T03:48:32.342Z,102784.09
2022-12-02T03:51:00.719Z,102789.28
2022-12-02T03:53:30.505Z,102779.63
2022-12-02T03:55:59.113Z,102788.28
2022-12-02T03:58:37.934Z,102779.63
2022-12-02T04:01:06.663Z,102785.69
2022-12-02T04:03:34.910Z,102783.91
2022-12-02T04:06:03.197Z,102785.69
2022-12-02T04:08:31.376Z,102780.50
2022-12-02T04:10:59.550Z,102787.50
2022-12-02T04:13:27.822Z,102781.44
2022-12-02T04:15:57.620Z,102782.31
2022-12-02T04:18:26.073Z,102776.31
2022-12-02T04:20:54.263Z,102778.84
2022-12-02T04:23:22.578Z,102778.03
2022-12-02T04:25:50.944Z,102772.84
2022-12-02T04:28:19.172Z,102771.94
2022-12-02T04:30:47.470Z,102767.66
2022-12-02T04:33:16.990Z,102769.25
2022-12-02T04:35:45.127Z,102762.28
2022-12-02T04:38:13.517Z,102766.56
2022-12-02T04:40:41.907Z,102763.00
2022-12-02T04:43:10.231Z,102756.91
2022-12-02T04:45:38.472Z,102749.06
2022-12-02T04:48:07.119Z,102761.19
2022-12-02T04:50:36.763Z,102756.00
2022-12-02T04:53:05.074Z,102757.59
2022-12-02T04:55:33.217Z,102747.13
2022-12-02T04:58:01.414Z,102750.44
2022-12-02T05:00:29.646Z,102743.47
2022-12-02T05:02:57.826Z,102740.78
2022-12-02T05:05:26.062Z,102750.44
2022-12-02T05:07:55.675Z,102748.84
2022-12-02T05:10:23.909Z,102754.22
2022-12-02T05:12:52.193Z,102744.94
2022-12-02T05:15:21.062Z,102745.13
2022-12-02T05:17:49.275Z,102739.31
2022-12-02T05:20:17.881Z,102743.00
2022-12-02T05:22:45.986Z,102738.00
2022-12-02T05:25:15.651Z,102736.38
2022-12-02T05:27:43.820Z,102739.97
2022-12-02T05:30:14.142Z,102745.31
2022-12-02T05:32:42.858Z,102745.53
2022-12-02T05:35:11.168Z,102737.75
2022-12-02T05:37:39.323Z,102724.06
2022-12-02T05:40:10.263Z,102726.84
2022-12-02T05:42:40.997Z,102735.72
2022-12-02T05:45:19.598Z,102732.28
2022-12-02T05:47:51.900Z,102734.22
2022-12-02T05:50:21.320Z,102728.19
2022-12-02T05:52:50.424Z,102725.78
2022-12-02T05:55:21.562Z,102722.47
2022-12-02T05:57:51.406Z,102726.75
2022-12-02T06:00:23.087Z,102731.34
2022-12-02T06:02:54.394Z,102734.03
2022-12-02T06:05:26.314Z,102726.25
2022-12-02T06:07:57.667Z,102728.91
2022-12-02T06:10:30.475Z,102729.72
2022-12-02T06:13:03.873Z,102734.28
2022-12-02T06:15:39.330Z,102726.41
2022-12-02T06:18:15.655Z,102727.41
2022-12-02T06:20:46.080Z,102730.97
2022-12-02T06:23:16.994Z,102733.59
2022-12-02T06:25:46.307Z,102731.88
2022-12-02T06:28:26.539Z,102735.28
2022-12-02T06:30:58.605Z,102723.19
2022-12-02T06:33:30.652Z,102735.34
2022-12-02T06:36:00.973Z,102730.88
2022-12-02T06:38:31.931Z,102729.00
2022-12-02T06:41:11.501Z,102726.97
2022-12-02T06:43:40.999Z,102729.47
2022-12-02T06:46:23.137Z,102724.16
2022-12-02T06:48:52.311Z,102731.06
2022-12-02T06:51:22.090Z,102740.56
2022-12-02T06:53:50.364Z,102733.50
2022-12-02T06:56:25.732Z,102726.50
2022-12-02T06:59:00.282Z,102735.00
2022-12-02T07:01:35.026Z,102738.31
2022-12-02T07:04:32.576Z,102743.22
2022-12-02T07:07:14.523Z,102747.41
2022-12-02T07:09:45.646Z,102745.72
2022-12-02T07:12:18.094Z,102745.72
2022-12-02T07:14:51.435Z,102753.59
2022-12-02T07:17:27.257Z,102768.34
2022-12-02T07:20:07.552Z,102760.47
2022-12-02T07:22:38.763Z,102756.09
2022-12-02T07:25:37.917Z,102755.91
2022-12-02T07:28:25.506Z,102755.03
2022-12-02T07:31:00.357Z,102761.97
2022-12-02T07:33:29.598Z,102756.78
2022-12-02T07:35:57.913Z,102764.69
2022-12-02T07:38:49.775Z,102764.69
2022-12-02T07:41:14.611Z,102776.81
2022-12-02T07:43:43.310Z,102762.09
2022-12-02T07:46:12.936Z,102761.25
2022-12-02T07:48:41.249Z,102768.25
2022-12-02T07:51:09.448Z,102771.63
2022-12-02T07:53:37.710Z,102768.06
2022-12-02T07:56:06.627Z,102776.03
2022-12-02T07:59:03.372Z,102775.22
2022-12-02T08:01:24.790Z,102776.94
2022-12-02T08:03:52.991Z,102777.03
2022-12-02T08:06:21.176Z,102772.72
2022-12-02T08:08:49.388Z,102782.41
2022-12-02T08:11:17.503Z,102778.19
2022-12-02T08:13:45.685Z,102788.69
2022-12-02T08:16:13.852Z,102781.84
2022-12-02T08:18:43.370Z,102783.50
2022-12-02T08:21:11.583Z,102793.16
2022-12-02T08:23:39.704Z,102787.16
2022-12-02T08:26:07.902Z,102790.63
2022-12-02T08:28:36.130Z,102789.63
2022-12-02T08:31:04.363Z,102795.53
2022-12-02T08:33:32.607Z,102792.94
2022-12-02T08:36:02.143Z,102797.25
2022-12-02T08:38:30.462Z,102800.00
2022-12-02T08:40:58.787Z,102798.34
2022-12-02T08:43:27.024Z,102803.31
2022-12-02T08:45:55.294Z,102803.31
2022-12-02T08:48:23.505Z,102800.72
2022-12-02T08:50:51.991Z,102808.50
2022-12-02T08:53:21.587Z,102798.84
2022-12-02T08:55:49.922Z,102796.97
2022-12-02T08:58:18.268Z,102806.53
2022-12-02T09:00:46.410Z,102798.75
2022-12-02T09:03:14.843Z,102803.25
2022-12-02T09:05:43.132Z,102802.44
2022-12-02T09:08:11.553Z,102796.63
2022-12-02T09:10:41.324Z,102799.59
2022-12-02T09:13:09.506Z,102804.16
2022-12-02T09:15:37.695Z,102796.47
2022-12-02T09:18:11.080Z,102795.75
2022-12-02T09:20:42.005Z,102799.34
2022-12-02T09:23:10.179Z,102801.41
2022-12-02T09:25:38.367Z,102796.56
2022-12-02T09:28:07.928Z,102796.94
2022-12-02T09:30:36.131Z,102794.72
2022-12-02T09:33:04.949Z,102800.34
2022-12-02T09:35:33.171Z,102798.63
2022-12-02T09:38:01.328Z,102799.56
2022-12-02T09:40:29.660Z,102793.44
2022-12-02T09:42:57.808Z,102795.34
2022-12-02T09:45:27.301Z,102797.28
2022-12-02T09:47:56.395Z,102802.41
2022-12-02T09:50:26.095Z,102797.22
2022-12-02T09:52:55.978Z,102801.59
2022-12-02T09:55:24.221Z,102798.91
2022-12-02T09:57:52.642Z,102795.34
2022-12-02T10:00:23.398Z,102811.00
2022-12-02T10:02:55.391Z,102798.72
2022-12-02T10:05:26.876Z,102801.22
2022-12-02T10:07:57.975Z,102794.25
2022-12-02T10:10:29.464Z,102803.75
2022-12-02T10:12:57.677Z,102801.94
2022-12-02T10:15:28.960Z,102803.56
2022-12-02T10:18:11.639Z,102805.09
2022-12-02T10:20:39.805Z,102800.69
2022-12-02T10:23:12.926Z,102795.50
2022-12-02T10:25:44.118Z,102811.06
2022-12-02T10:28:26.929Z,102797.22
2022-12-02T10:31:01.684Z,102793.72
2022-12-02T10:33:33.389Z,102797.94
2022-12-02T10:36:02.474Z,102791.75
2022-12-02T10:38:38.137Z,102790.97
2022-12-02T10:41:24.913Z,102790.25
2022-12-02T10:44:11.503Z,102786.72
2022-12-02T10:46:39.704Z,102783.16
2022-12-02T10:49:30.919Z,102789.97
2022-12-02T10:52:05.010Z,102785.56
2022-12-02T10:54:41.498Z,102782.34
2022-12-02T10:57:18.196Z,102784.31
2022-12-02T10:59:46.528Z,102788.81
2022-12-02T11:02:32.653Z,102789.06
2022-12-02T11:05:15.225Z,102790.84
2022-12-02T11:07:52.217Z,102785.66
2022-12-02T11:10:22.864Z,102782.25
2022-12-02T11:13:36.452Z,102781.28
2022-12-02T11:16:54.112Z,102776.00
2022-12-02T11:19:46.634Z,102783.50
2022-12-02T11:23:06.813Z,102776.59
2022-12-02T11:25:59.267Z,102770.63
2022-12-02T11:29:15.597Z,102772.59
2022-12-02T11:31:44.134Z,102773.31
2022-12-02T11:35:15.820Z,102774.22
2022-12-02T11:37:41.650Z,102764.72
2022-12-02T11:40:58.089Z,102773.66
2022-12-02T11:44:11.665Z,102766.69
2022-12-02T11:46:46.321Z,102769.28
2022-12-02T11:49:30.082Z,102763.28
2022-12-02T11:52:23.819Z,102757.34
2022-12-02T11:54:58.531Z,102757.34
2022-12-02T11:57:31.179Z,102759.16
2022-12-02T12:00:00.878Z,102755.84
2022-12-02T12:02:29.307Z,102744.63
2022-12-02T12:05:04.547Z,102744.63
2022-12-02T12:07:44.409Z,102741.97
2022-12-02T12:10:31.859Z,102735.91
2022-12-02T12:13:22.533Z,102729.72
2022-12-02T12:16:02.686Z,102739.28
2022-12-02T12:18:45.745Z,102732.31
2022-12-02T12:21:16.077Z,102739.28
2022-12-02T12:23:46.379Z,102732.31
2022-12-02T12:26:35.178Z,102733.09
2022-12-02T12:29:05.295Z,102737.50
2022-12-02T12:31:38.322Z,102730.50
2022-12-02T12:34:08.690Z,102724.59
2022-12-02T12:36:37.361Z,102726.19
2022-12-02T12:39:07.276Z,102720.13
2022-12-02T12:44:29.716Z,102711.53
2022-12-02T12:47:00.639Z,102722.97
2022-12-02T12:49:29.164Z,102721.28
2022-12-02T12:51:57.392Z,102722.97
2022-12-02T12:54:25.614Z,102722.00
2022-12-02T12:56:53.750Z,102723.69
2022-12-02T12:59:21.947Z,102718.34
2022-12-02T13:01:50.193Z,102720.94
2022-12-02T13:04:19.787Z,102719.97
2022-12-02T13:06:48.289Z,102726.94
2022-12-02T13:09:17.019Z,102723.34
2022-12-02T13:11:45.224Z,102720.75
2022-12-02T13:14:13.378Z,102724.31
2022-12-02T13:16:41.615Z,102723.34
2022-12-02T13:19:09.869Z,102724.78
2022-12-02T13:21:39.524Z,102728.22
2022-12-02T13:24:09.042Z,102735.00
2022-12-02T13:26:37.298Z,102728.94
2022-12-02T13:29:05.492Z,102722.81
2022-12-02T13:31:33.771Z,102728.22
2022-12-02T13:34:01.978Z,102729.09
2022-12-02T13:36:30.119Z,102726.59
2022-12-02T13:39:05.740Z,102726.59
2022-12-02T13:41:34.645Z,102730.16
2022-12-02T13:44:02.822Z,102729.09
2022-12-02T13:46:31.214Z,102725.41
2022-12-02T13:48:59.515Z,102732.94
2022-12-02T13:51:27.752Z,102730.91
2022-12-02T13:53:59.343Z,102739.31
2022-12-02T13:56:29.684Z,102736.44
2022-12-02T13:58:57.941Z,102742.53
2022-12-02T14:01:26.292Z,102749.31
2022-12-02T14:03:54.523Z,102755.22
2022-12-02T14:06:22.809Z,102753.44
2022-12-02T14:08:51.027Z,102752.53
2022-12-02T14:11:21.766Z,102755.94
2022-12-02T14:13:51.942Z,102759.44
2022-12-02T14:16:21.176Z,102748.97
2022-12-02T14:18:55.471Z,102751.56
2022-12-02T14:21:25.517Z,102758.25
2022-12-02T14:23:54.205Z,102758.38
2022-12-02T14:26:23.177Z,102758.44
2022-12-02T14:28:52.666Z,102751.03
2022-12-02T14:31:26.446Z,102763.47
2022-12-02T14:34:13.052Z,102758.63
2022-12-02T14:36:42.312Z,102759.72
2022-12-02T14:39:11.175Z,102752.03
2022-12-02T14:41:39.568Z,102749.13
2022-12-02T14:44:09.248Z,102755.38
2022-12-02T14:46:37.892Z,102755.66
2022-12-02T14:51:54.313Z,102761.91
2022-12-02T14:54:22.538Z,102756.47
2022-12-02T14:56:50.763Z,102764.94
2022-12-02T14:59:21.019Z,102765.66
2022-12-02T15:01:49.198Z,102764.69
2022-12-02T15:04:17.371Z,102768.06
2022-12-02T15:06:45.741Z,102774.34
2022-12-02T15:09:14.798Z,102766.66
2022-12-02T15:11:43.005Z,102775.41
2022-12-02T15:14:11.254Z,102766.84
2022-12-02T15:16:40.952Z,102777.22
2022-12-02T15:19:09.147Z,102774.63
2022-12-02T15:21:37.463Z,102771.19
2022-12-02T15:24:06.492Z,102776.50
2022-12-02T15:26:34.679Z,102765.03
2022-12-02T15:29:02.773Z,102775.41
2022-12-02T15:31:30.980Z,102771.13
2022-12-02T15:34:00.520Z,102772.03
2022-12-02T15:36:28.694Z,102779.91
2022-12-02T15:38:56.822Z,102771.19
2022-12-02T15:41:24.983Z,102777.38
2022-12-02T15:43:54.333Z,102777.38
2022-12-02T15:46:23.856Z,102774.88
2022-12-02T15:48:52.344Z,102774.06
2022-12-02T15:51:21.888Z,102779.38
2022-12-02T15:53:50.081Z,102774.16
2022-12-02T15:56:18.341Z,102780.25
2022-12-02T15:58:47.597Z,102778.56
2022-12-02T16:01:15.900Z,102778.66
2022-12-02T16:03:44.174Z,102774.34
2022-12-02T16:06:13.347Z,102769.16
2022-12-02T16:08:42.978Z,102774.44
2022-12-02T16:11:11.888Z,102770.06
2022-12-02T16:13:40.389Z,102775.34
2022-12-02T16:16:09.565Z,102771.97
2022-12-02T16:18:37.795Z,102777.94
2022-12-02T16:21:06.178Z,102779.63
2022-12-02T16:23:36.370Z,102781.34
2022-12-02T16:26:06.210Z,102779.63
2022-12-02T16:28:34.397Z,102771.97
2022-12-02T16:31:02.617Z,102782.34
2022-12-02T16:33:30.857Z,102776.25
2022-12-02T16:35:59.068Z,102776.16
2022-12-02T16:38:27.286Z,102783.03
2022-12-02T16:40:55.433Z,102779.53
2022-12-02T16:43:24.914Z,102782.13
2022-12-02T16:45:53.166Z,102782.94
2022-12-02T16:48:21.380Z,102781.25
2022-12-02T16:50:55.306Z,102788.22
2022-12-02T16:53:24.058Z,102792.59
2022-12-02T16:55:52.344Z,102790.13
2022-12-02T16:58:20.535Z,102783.22
2022-12-02T17:00:50.134Z,102796.09
2022-12-02T17:03:18.310Z,102790.13
2022-12-02T17:05:46.489Z,102791.00
2022-12-02T17:08:14.923Z,102779.75
2022-12-02T17:10:43.202Z,102795.38
2022-12-02T17:13:11.433Z,102794.59
2022-12-02T17:15:39.907Z,102792.09
2022-12-02T17:18:09.532Z,102792.97
2022-12-02T17:20:37.868Z,102795.69
2022-12-02T17:23:06.118Z,102794.03
2022-12-02T17:25:34.310Z,102796.63
2022-12-02T17:28:02.527Z,102790.50
2022-12-02T17:30:30.738Z,102796.56
2022-12-02T17:32:58.898Z,102799.06
2022-12-02T17:35:28.465Z,102795.56
2022-12-02T17:37:56.663Z,102797.28
2022-12-02T17:40:24.872Z,102792.78
2022-12-02T17:42:53.116Z,102795.19
2022-12-02T17:45:21.352Z,102802.19
2022-12-02T17:47:49.808Z,102804.69
2022-12-02T17:50:18.278Z,102803.69
2022-12-02T17:52:47.780Z,102808.88
2022-12-02T17:55:16.145Z,102808.88
2022-12-02T17:57:44.309Z,102811.47
2022-12-02T18:00:14.150Z,102814.06
2022-12-02T18:02:42.351Z,102810.59
2022-12-02T18:05:11.104Z,102807.28
2022-12-02T18:07:39.360Z,102812.47
2022-12-02T18:10:10.232Z,102809.88
2022-12-02T18:12:38.451Z,102809.78
2022-12-02T18:15:08.243Z,102814.06
2022-12-02T18:17:37.103Z,102817.50
2022-12-02T18:20:07.053Z,102806.91
2022-12-02T18:22:35.550Z,102809.44
2022-12-02T18:25:04.232Z,102819.09
2022-12-02T18:27:33.962Z,102816.56
2022-12-02T18:30:02.159Z,102813.97
2022-12-02T18:32:30.342Z,102818.28
2022-12-02T18:34:58.492Z,102819.88
2022-12-02T18:37:26.754Z,102819.88
2022-12-02T18:39:55.020Z,102825.88
2022-12-02T18:42:23.530Z,102818.09
2022-12-02T18:44:53.338Z,102822.28
2022-12-02T18:47:21.814Z,102824.78
2022-12-02T18:49:49.991Z,102816.91
2022-12-02T18:52:18.187Z,102815.00
2022-12-02T18:54:46.462Z,102814.13
2022-12-02T18:57:14.599Z,102813.34
2022-12-02T18:59:42.854Z,102801.00
2022-12-02T19:02:12.647Z,102810.75
2022-12-02T19:04:40.829Z,102809.75
2022-12-02T19:07:09.007Z,102811.53
2022-12-02T19:09:37.274Z,102805.34
2022-12-02T19:12:06.294Z,102814.13
2022-12-02T19:14:34.487Z,102809.75
2022-12-02T19:17:02.731Z,102809.75
2022-12-02T19:19:32.226Z,102809.75
2022-12-02T19:22:00.472Z,102799.38
2022-12-02T19:24:28.683Z,102798.47
2022-12-02T19:26:57.066Z,102800.09
2022-12-02T19:29:25.248Z,102800.09
2022-12-02T19:31:53.505Z,102804.38
2022-12-02T19:34:21.739Z,102808.75
2022-12-02T19:36:51.386Z,102804.56
2022-12-02T19:39:19.542Z,102800.16
2022-12-02T19:41:47.851Z,102801.06
2022-12-02T19:44:16.059Z,102800.28
2022-12-02T19:46:44.410Z,102803.75
2022-12-02T19:49:12.735Z,102802.97
2022-12-02T19:51:40.891Z,102795.09
2022-12-02T19:54:10.602Z,102799.38
2022-12-02T19:56:38.811Z,102801.16
2022-12-02T19:59:07.046Z,102802.97
2022-12-02T20:01:39.065Z,102795.97
2022-12-02T20:04:33.366Z,102802.97
2022-12-02T20:06:56.268Z,102804.56
2022-12-02T20:09:27.069Z,102800.16
2022-12-02T20:11:55.275Z,102813.13
2022-12-02T20:14:23.577Z,102794.97
2022-12-02T20:16:51.731Z,102802.75
2022-12-02T20:19:19.914Z,102800.28
2022-12-02T20:21:48.110Z,102794.19
2022-12-02T20:24:16.449Z,102795.97
2022-12-02T20:26:46.020Z,102798.56
2022-12-02T20:29:14.365Z,102800.38
2022-12-02T20:31:42.658Z,102795.25
2022-12-02T20:34:11.962Z,102795.38
2022-12-02T20:36:40.190Z,102787.59
2022-12-02T20:39:08.386Z,102785.88
2022-12-02T20:41:36.528Z,102785.97
2022-12-02T20:44:06.509Z,102780.06
2022-12-02T20:46:36.181Z,102793.16
2022-12-02T20:49:04.395Z,102787.25
2022-12-02T20:51:32.643Z,102787.25
2022-12-02T20:54:00.818Z,102786.44
2022-12-02T20:56:29.011Z,102787.31
2022-12-02T20:58:58.124Z,102783.13
2022-12-02T21:01:28.033Z,102783.22
2022-12-02T21:03:56.262Z,102781.63
2022-12-02T21:06:25.494Z,102776.44
2022-12-02T21:08:55.736Z,102779.19
2022-12-02T21:11:24.670Z,102777.59
2022-12-02T21:13:52.882Z,102777.69
2022-12-02T21:16:21.796Z,102779.56
2022-12-02T21:18:51.366Z,102775.25
2022-12-02T21:21:19.498Z,102777.06
2022-12-02T21:23:47.659Z,102770.28
2022-12-02T21:26:15.797Z,102772.06
2022-12-02T21:28:43.988Z,102767.75
2022-12-02T21:31:12.747Z,102768.66
2022-12-02T21:33:40.974Z,102760.06
2022-12-02T21:36:11.094Z,102766.84
2022-12-02T21:38:39.433Z,102765.09
2022-12-02T21:41:07.688Z,102760.88
2022-12-02T21:43:35.874Z,102760.94
2022-12-02T21:46:04.487Z,102750.56
2022-12-02T21:48:32.671Z,102755.03
2022-12-02T21:51:00.875Z,102748.25
2022-12-02T21:53:30.454Z,102745.75
2022-12-02T21:55:58.659Z,102745.03
2022-12-02T21:58:26.904Z,102746.84
2022-12-02T22:01:15.272Z,102744.31
2022-12-02T22:03:44.036Z,102745.19
2022-12-02T22:06:12.168Z,102741.81
2022-12-02T22:08:42.048Z,102740.19
2022-12-02T22:11:10.271Z,102730.72
2022-12-02T22:13:38.389Z,102735.19
2022-12-02T22:16:07.034Z,102721.41
2022-12-02T22:18:35.234Z,102729.34
2022-12-02T22:21:03.475Z,102728.53
2022-12-02T22:23:31.700Z,102720.75
2022-12-02T22:26:01.562Z,102713.94
2022-12-02T22:28:29.731Z,102716.53
2022-12-02T22:31:00.446Z,102714.94
2022-12-02T22:33:33.221Z,102716.91
2022-12-02T22:36:02.060Z,102711.81
2022-12-02T22:38:30.373Z,102701.47
2022-12-02T22:41:00.204Z,102697.22
2022-12-02T22:43:28.468Z,102702.41
2022-12-02T22:45:56.823Z,102697.22
2022-12-02T22:48:25.136Z,102689.31
2022-12-02T22:50:53.341Z,102689.47
2022-12-02T22:53:21.557Z,102688.69
2022-12-02T22:55:49.721Z,102686.97
2022-12-02T22:58:19.244Z,102693.94
2022-12-02T23:00:47.488Z,102684.28
2022-12-02T23:03:16.796Z,102684.28
2022-12-02T23:05:44.964Z,102680.06
2022-12-02T23:08:13.153Z,102675.78
2022-12-02T23:10:42.194Z,102681.88
2022-12-02T23:13:10.383Z,102674.97
2022-12-02T23:15:40.648Z,102678.47
2022-12-02T23:18:09.335Z,102672.47
2022-12-02T23:20:37.705Z,102670.13
2022-12-02T23:23:06.000Z,102662.34
2022-12-02T23:25:34.601Z,102662.41
2022-12-02T23:28:02.870Z,102655.50
2022-12-02T23:30:31.134Z,102657.31
2022-12-02T23:33:00.827Z,102658.38
2022-12-02T23:35:30.056Z,102653.34
2022-12-02T23:37:59.200Z,102650.03
2022-12-02T23:40:27.700Z,102651.97
2022-12-02T23:42:55.967Z,102652.13
2022-12-02T23:45:24.139Z,102648.00
2022-12-02T23:47:52.439Z,102648.25
2022-12-02T23:50:21.992Z,102645.75
2022-12-02T23:52:50.172Z,102649.38
2022-12-02T23:55:18.517Z,102635.66
2022-12-02T23:57:46.639Z,102635.84
